sensor_id;sensor_type;location;lat;lon;timestamp;P1;durP1;ratioP1;P2;durP2;ratioP2
24086;SDS011;22893;50.572;7.234;2022-10-31T00:01:39;8.40;;;3.10;;
24086;SDS011;22893;50.572;7.234;2022-10-31T00:04:07;7.10;;;2.77;;
24086;SDS011;22893;50.572;7.234;2022-10-31T00:06:34;5.15;;;2.67;;
24086;SDS011;22893;50.572;7.234;2022-10-31T00:09:03;3.27;;;2.35;;
24086;SDS011;22893;50.572;7.234;2022-10-31T00:11:31;5.08;;;2.15;;
24086;SDS011;22893;50.572;7.234;2022-10-31T00:13:58;6.03;;;2.83;;
24086;SDS011;22893;50.572;7.234;2022-10-31T00:16:26;5.55;;;2.52;;
24086;SDS011;22893;50.572;7.234;2022-10-31T00:18:55;4.80;;;2.55;;
24086;SDS011;22893;50.572;7.234;2022-10-31T00:21:25;5.67;;;2.98;;
24086;SDS011;22893;50.572;7.234;2022-10-31T00:23:53;4.97;;;2.42;;
24086;SDS011;22893;50.572;7.234;2022-10-31T00:26:21;4.22;;;2.45;;
24086;SDS011;22893;50.572;7.234;2022-10-31T00:28:48;5.15;;;2.75;;
24086;SDS011;22893;50.572;7.234;2022-10-31T00:31:16;4.17;;;2.67;;
24086;SDS011;22893;50.572;7.234;2022-10-31T00:33:44;4.53;;;3.00;;
24086;SDS011;22893;50.572;7.234;2022-10-31T00:36:12;4.03;;;2.42;;
24086;SDS011;22893;50.572;7.234;2022-10-31T00:38:42;6.12;;;2.62;;
24086;SDS011;22893;50.572;7.234;2022-10-31T00:41:11;4.97;;;2.52;;
24086;SDS011;22893;50.572;7.234;2022-10-31T00:43:40;4.85;;;2.70;;
24086;SDS011;22893;50.572;7.234;2022-10-31T00:46:08;4.53;;;2.60;;
24086;SDS011;22893;50.572;7.234;2022-10-31T00:48:36;3.75;;;2.20;;
24086;SDS011;22893;50.572;7.234;2022-10-31T00:51:04;5.45;;;2.60;;
24086;SDS011;22893;50.572;7.234;2022-10-31T00:53:32;4.65;;;2.42;;
24086;SDS011;22893;50.572;7.234;2022-10-31T00:55:59;4.65;;;2.27;;
24086;SDS011;22893;50.572;7.234;2022-10-31T00:58:27;6.92;;;2.70;;
24086;SDS011;22893;50.572;7.234;2022-10-31T01:00:54;5.58;;;3.40;;
24086;SDS011;22893;50.572;7.234;2022-10-31T01:03:23;4.67;;;2.70;;
24086;SDS011;22893;50.572;7.234;2022-10-31T01:06:02;4.08;;;2.15;;
24086;SDS011;22893;50.572;7.234;2022-10-31T01:08:32;6.08;;;3.33;;
24086;SDS011;22893;50.572;7.234;2022-10-31T01:11:14;4.45;;;2.70;;
24086;SDS011;22893;50.572;7.234;2022-10-31T01:13:45;6.17;;;2.65;;
24086;SDS011;22893;50.572;7.234;2022-10-31T01:16:15;4.00;;;2.33;;
24086;SDS011;22893;50.572;7.234;2022-10-31T01:18:44;4.87;;;2.60;;
24086;SDS011;22893;50.572;7.234;2022-10-31T01:21:13;7.67;;;3.00;;
24086;SDS011;22893;50.572;7.234;2022-10-31T01:23:43;5.15;;;2.72;;
24086;SDS011;22893;50.572;7.234;2022-10-31T01:26:15;3.67;;;2.12;;
24086;SDS011;22893;50.572;7.234;2022-10-31T01:28:48;6.40;;;2.50;;
24086;SDS011;22893;50.572;7.234;2022-10-31T01:31:18;3.65;;;2.10;;
24086;SDS011;22893;50.572;7.234;2022-10-31T01:33:47;5.05;;;2.42;;
24086;SDS011;22893;50.572;7.234;2022-10-31T01:36:17;4.55;;;2.00;;
24086;SDS011;22893;50.572;7.234;2022-10-31T01:38:58;4.45;;;2.77;;
24086;SDS011;22893;50.572;7.234;2022-10-31T01:41:33;4.28;;;2.30;;
24086;SDS011;22893;50.572;7.234;2022-10-31T01:44:48;5.78;;;2.62;;
24086;SDS011;22893;50.572;7.234;2022-10-31T01:46:50;4.60;;;2.20;;
24086;SDS011;22893;50.572;7.234;2022-10-31T01:49:46;5.20;;;2.02;;
24086;SDS011;22893;50.572;7.234;2022-10-31T01:52:30;5.28;;;2.77;;
24086;SDS011;22893;50.572;7.234;2022-10-31T01:55:03;5.20;;;2.55;;
24086;SDS011;22893;50.572;7.234;2022-10-31T01:57:32;5.80;;;2.15;;
24086;SDS011;22893;50.572;7.234;2022-10-31T02:00:03;5.50;;;2.60;;
24086;SDS011;22893;50.572;7.234;2022-10-31T02:02:32;5.25;;;2.52;;
24086;SDS011;22893;50.572;7.234;2022-10-31T02:05:01;6.90;;;2.83;;
24086;SDS011;22893;50.572;7.234;2022-10-31T02:07:32;4.15;;;2.10;;
24086;SDS011;22893;50.572;7.234;2022-10-31T02:10:16;3.77;;;2.17;;
24086;SDS011;22893;50.572;7.234;2022-10-31T02:12:45;4.03;;;2.25;;
24086;SDS011;22893;50.572;7.234;2022-10-31T02:15:13;6.53;;;2.58;;
24086;SDS011;22893;50.572;7.234;2022-10-31T02:17:42;5.70;;;2.35;;
24086;SDS011;22893;50.572;7.234;2022-10-31T02:20:21;4.83;;;2.27;;
24086;SDS011;22893;50.572;7.234;2022-10-31T02:25:56;3.83;;;1.67;;
24086;SDS011;22893;50.572;7.234;2022-10-31T02:37:35;5.65;;;2.33;;
24086;SDS011;22893;50.572;7.234;2022-10-31T02:40:11;5.17;;;2.20;;
24086;SDS011;22893;50.572;7.234;2022-10-31T02:42:48;5.95;;;2.65;;
24086;SDS011;22893;50.572;7.234;2022-10-31T02:45:21;5.28;;;2.62;;
24086;SDS011;22893;50.572;7.234;2022-10-31T02:47:50;5.83;;;2.72;;
24086;SDS011;22893;50.572;7.234;2022-10-31T02:50:25;4.35;;;2.05;;
24086;SDS011;22893;50.572;7.234;2022-10-31T02:52:56;4.85;;;2.55;;
24086;SDS011;22893;50.572;7.234;2022-10-31T02:57:56;3.30;;;1.98;;
24086;SDS011;22893;50.572;7.234;2022-10-31T03:00:25;5.53;;;2.33;;
24086;SDS011;22893;50.572;7.234;2022-10-31T03:03:06;4.00;;;1.92;;
24086;SDS011;22893;50.572;7.234;2022-10-31T03:08:30;3.95;;;2.10;;
24086;SDS011;22893;50.572;7.234;2022-10-31T03:11:09;3.08;;;1.90;;
24086;SDS011;22893;50.572;7.234;2022-10-31T03:13:57;3.72;;;1.87;;
24086;SDS011;22893;50.572;7.234;2022-10-31T03:16:37;3.25;;;1.82;;
24086;SDS011;22893;50.572;7.234;2022-10-31T03:19:08;4.10;;;2.10;;
24086;SDS011;22893;50.572;7.234;2022-10-31T03:21:41;5.22;;;1.85;;
24086;SDS011;22893;50.572;7.234;2022-10-31T03:24:10;4.80;;;2.12;;
24086;SDS011;22893;50.572;7.234;2022-10-31T03:26:44;3.20;;;2.12;;
24086;SDS011;22893;50.572;7.234;2022-10-31T03:29:14;4.15;;;2.42;;
24086;SDS011;22893;50.572;7.234;2022-10-31T03:31:51;3.92;;;1.65;;
24086;SDS011;22893;50.572;7.234;2022-10-31T03:34:20;3.95;;;1.90;;
24086;SDS011;22893;50.572;7.234;2022-10-31T03:36:52;3.33;;;1.75;;
24086;SDS011;22893;50.572;7.234;2022-10-31T03:39:22;5.40;;;1.70;;
24086;SDS011;22893;50.572;7.234;2022-10-31T03:41:56;2.83;;;1.70;;
24086;SDS011;22893;50.572;7.234;2022-10-31T03:44:27;3.85;;;1.72;;
24086;SDS011;22893;50.572;7.234;2022-10-31T03:46:57;5.08;;;2.65;;
24086;SDS011;22893;50.572;7.234;2022-10-31T03:49:25;4.97;;;2.15;;
24086;SDS011;22893;50.572;7.234;2022-10-31T03:54:36;8.93;;;2.30;;
24086;SDS011;22893;50.572;7.234;2022-10-31T03:59:58;3.75;;;2.22;;
24086;SDS011;22893;50.572;7.234;2022-10-31T04:02:28;5.10;;;2.20;;
24086;SDS011;22893;50.572;7.234;2022-10-31T04:04:58;3.58;;;1.80;;
24086;SDS011;22893;50.572;7.234;2022-10-31T04:07:30;5.00;;;2.62;;
24086;SDS011;22893;50.572;7.234;2022-10-31T04:10:00;4.22;;;2.05;;
24086;SDS011;22893;50.572;7.234;2022-10-31T04:12:30;4.90;;;1.80;;
24086;SDS011;22893;50.572;7.234;2022-10-31T04:15:01;4.42;;;2.27;;
24086;SDS011;22893;50.572;7.234;2022-10-31T04:17:31;4.58;;;2.62;;
24086;SDS011;22893;50.572;7.234;2022-10-31T04:20:02;4.85;;;2.50;;
24086;SDS011;22893;50.572;7.234;2022-10-31T04:22:30;9.13;;;2.02;;
24086;SDS011;22893;50.572;7.234;2022-10-31T04:24:57;4.30;;;2.30;;
24086;SDS011;22893;50.572;7.234;2022-10-31T04:27:25;4.35;;;1.60;;
24086;SDS011;22893;50.572;7.234;2022-10-31T04:29:53;5.33;;;2.10;;
24086;SDS011;22893;50.572;7.234;2022-10-31T04:32:20;3.35;;;1.85;;
24086;SDS011;22893;50.572;7.234;2022-10-31T04:34:48;7.10;;;2.05;;
24086;SDS011;22893;50.572;7.234;2022-10-31T04:37:19;5.83;;;2.10;;
24086;SDS011;22893;50.572;7.234;2022-10-31T04:39:45;5.90;;;2.12;;
24086;SDS011;22893;50.572;7.234;2022-10-31T04:42:12;2.10;;;1.35;;
24086;SDS011;22893;50.572;7.234;2022-10-31T04:44:40;6.20;;;2.25;;
24086;SDS011;22893;50.572;7.234;2022-10-31T04:47:08;6.20;;;2.40;;
24086;SDS011;22893;50.572;7.234;2022-10-31T04:49:35;4.08;;;2.27;;
24086;SDS011;22893;50.572;7.234;2022-10-31T04:52:03;4.95;;;2.37;;
24086;SDS011;22893;50.572;7.234;2022-10-31T04:54:30;3.77;;;1.92;;
24086;SDS011;22893;50.572;7.234;2022-10-31T04:56:58;5.28;;;2.30;;
24086;SDS011;22893;50.572;7.234;2022-10-31T04:59:25;4.83;;;1.85;;
24086;SDS011;22893;50.572;7.234;2022-10-31T05:01:53;4.47;;;1.90;;
24086;SDS011;22893;50.572;7.234;2022-10-31T11:35:58;6.53;;;2.47;;
24086;SDS011;22893;50.572;7.234;2022-10-31T11:38:33;12.90;;;3.35;;
24086;SDS011;22893;50.572;7.234;2022-10-31T11:41:08;4.62;;;2.83;;
24086;SDS011;22893;50.572;7.234;2022-10-31T11:43:52;7.10;;;2.87;;
24086;SDS011;22893;50.572;7.234;2022-10-31T11:46:35;7.60;;;2.80;;
24086;SDS011;22893;50.572;7.234;2022-10-31T11:49:29;11.15;;;3.15;;
24086;SDS011;22893;50.572;7.234;2022-10-31T11:52:00;5.90;;;3.08;;
24086;SDS011;22893;50.572;7.234;2022-10-31T11:54:41;10.63;;;3.05;;
24086;SDS011;22893;50.572;7.234;2022-10-31T11:57:03;8.88;;;3.30;;
24086;SDS011;22893;50.572;7.234;2022-10-31T11:59:31;12.80;;;3.30;;
24086;SDS011;22893;50.572;7.234;2022-10-31T12:02:01;10.50;;;3.47;;
24086;SDS011;22893;50.572;7.234;2022-10-31T12:04:34;7.17;;;3.40;;
24086;SDS011;22893;50.572;7.234;2022-10-31T12:07:11;6.87;;;2.83;;
24086;SDS011;22893;50.572;7.234;2022-10-31T12:09:39;5.60;;;3.17;;
24086;SDS011;22893;50.572;7.234;2022-10-31T12:14:56;16.95;;;3.98;;
24086;SDS011;22893;50.572;7.234;2022-10-31T12:18:09;9.23;;;3.02;;
24086;SDS011;22893;50.572;7.234;2022-10-31T12:23:00;15.45;;;3.40;;
24086;SDS011;22893;50.572;7.234;2022-10-31T12:33:29;11.28;;;3.30;;
24086;SDS011;22893;50.572;7.234;2022-10-31T12:36:07;5.65;;;2.83;;
24086;SDS011;22893;50.572;7.234;2022-10-31T12:41:44;14.33;;;3.67;;
24086;SDS011;22893;50.572;7.234;2022-10-31T12:47:32;12.25;;;3.30;;
24086;SDS011;22893;50.572;7.234;2022-10-31T12:50:13;17.32;;;3.90;;
24086;SDS011;22893;50.572;7.234;2022-10-31T12:55:41;7.87;;;2.85;;
24086;SDS011;22893;50.572;7.234;2022-10-31T13:01:00;11.15;;;4.05;;
24086;SDS011;22893;50.572;7.234;2022-10-31T13:03:33;10.95;;;2.72;;
24086;SDS011;22893;50.572;7.234;2022-10-31T13:06:03;9.13;;;2.72;;
24086;SDS011;22893;50.572;7.234;2022-10-31T13:08:38;8.20;;;2.50;;
24086;SDS011;22893;50.572;7.234;2022-10-31T13:11:14;11.97;;;2.77;;
24086;SDS011;22893;50.572;7.234;2022-10-31T13:16:26;9.60;;;2.90;;
24086;SDS011;22893;50.572;7.234;2022-10-31T13:21:34;7.90;;;2.20;;
24086;SDS011;22893;50.572;7.234;2022-10-31T13:24:00;9.83;;;3.08;;
24086;SDS011;22893;50.572;7.234;2022-10-31T13:26:37;6.72;;;2.42;;
24086;SDS011;22893;50.572;7.234;2022-10-31T13:31:51;6.05;;;3.83;;
24086;SDS011;22893;50.572;7.234;2022-10-31T13:34:26;6.37;;;2.50;;
24086;SDS011;22893;50.572;7.234;2022-10-31T13:37:07;18.90;;;4.10;;
24086;SDS011;22893;50.572;7.234;2022-10-31T13:42:37;6.45;;;2.33;;
24086;SDS011;22893;50.572;7.234;2022-10-31T13:45:15;12.68;;;3.00;;
24086;SDS011;22893;50.572;7.234;2022-10-31T13:47:54;9.25;;;2.75;;
24086;SDS011;22893;50.572;7.234;2022-10-31T13:50:30;9.30;;;3.12;;
24086;SDS011;22893;50.572;7.234;2022-10-31T13:53:13;10.82;;;2.70;;
24086;SDS011;22893;50.572;7.234;2022-10-31T13:55:46;7.22;;;2.60;;
24086;SDS011;22893;50.572;7.234;2022-10-31T13:58:26;6.70;;;2.50;;
24086;SDS011;22893;50.572;7.234;2022-10-31T14:01:20;14.03;;;2.80;;
24086;SDS011;22893;50.572;7.234;2022-10-31T14:03:35;6.70;;;2.33;;
24086;SDS011;22893;50.572;7.234;2022-10-31T14:06:04;8.48;;;2.47;;
24086;SDS011;22893;50.572;7.234;2022-10-31T14:08:35;7.55;;;2.37;;
24086;SDS011;22893;50.572;7.234;2022-10-31T14:11:07;9.43;;;3.10;;
24086;SDS011;22893;50.572;7.234;2022-10-31T14:13:38;6.80;;;2.67;;
24086;SDS011;22893;50.572;7.234;2022-10-31T14:16:22;8.13;;;2.58;;
24086;SDS011;22893;50.572;7.234;2022-10-31T14:19:14;13.03;;;3.58;;
24086;SDS011;22893;50.572;7.234;2022-10-31T14:23:54;7.47;;;3.05;;
24086;SDS011;22893;50.572;7.234;2022-10-31T14:29:20;10.58;;;3.25;;
24086;SDS011;22893;50.572;7.234;2022-10-31T14:32:03;20.15;;;5.42;;
24086;SDS011;22893;50.572;7.234;2022-10-31T14:34:32;15.65;;;4.92;;
24086;SDS011;22893;50.572;7.234;2022-10-31T14:39:56;15.18;;;4.92;;
24086;SDS011;22893;50.572;7.234;2022-10-31T14:48:18;16.65;;;6.03;;
24086;SDS011;22893;50.572;7.234;2022-10-31T14:50:52;20.37;;;4.95;;
24086;SDS011;22893;50.572;7.234;2022-10-31T14:53:26;13.93;;;5.78;;
24086;SDS011;22893;50.572;7.234;2022-10-31T14:56:02;19.50;;;5.15;;
24086;SDS011;22893;50.572;7.234;2022-10-31T14:58:33;19.57;;;5.25;;
24086;SDS011;22893;50.572;7.234;2022-10-31T15:01:05;16.07;;;5.10;;
24086;SDS011;22893;50.572;7.234;2022-10-31T15:03:34;16.77;;;5.75;;
24086;SDS011;22893;50.572;7.234;2022-10-31T15:06:09;16.57;;;5.80;;
24086;SDS011;22893;50.572;7.234;2022-10-31T15:08:38;19.98;;;4.90;;
24086;SDS011;22893;50.572;7.234;2022-10-31T15:13:52;18.15;;;5.35;;
24086;SDS011;22893;50.572;7.234;2022-10-31T15:16:26;14.58;;;5.10;;
24086;SDS011;22893;50.572;7.234;2022-10-31T15:18:59;17.30;;;4.85;;
24086;SDS011;22893;50.572;7.234;2022-10-31T15:21:28;19.05;;;4.92;;
24086;SDS011;22893;50.572;7.234;2022-10-31T15:23:57;13.58;;;5.25;;
24086;SDS011;22893;50.572;7.234;2022-10-31T15:26:30;16.57;;;4.67;;
24086;SDS011;22893;50.572;7.234;2022-10-31T15:29:01;18.32;;;5.12;;
24086;SDS011;22893;50.572;7.234;2022-10-31T15:31:31;14.83;;;5.28;;
24086;SDS011;22893;50.572;7.234;2022-10-31T15:34:06;20.95;;;6.78;;
24086;SDS011;22893;50.572;7.234;2022-10-31T15:36:35;13.25;;;5.03;;
24086;SDS011;22893;50.572;7.234;2022-10-31T15:39:03;10.95;;;3.12;;
24086;SDS011;22893;50.572;7.234;2022-10-31T15:41:34;16.95;;;5.20;;
24086;SDS011;22893;50.572;7.234;2022-10-31T15:46:57;10.10;;;3.35;;
24086;SDS011;22893;50.572;7.234;2022-10-31T15:49:40;12.73;;;3.60;;
24086;SDS011;22893;50.572;7.234;2022-10-31T15:52:14;14.50;;;4.33;;
24086;SDS011;22893;50.572;7.234;2022-10-31T15:54:48;13.93;;;4.72;;
24086;SDS011;22893;50.572;7.234;2022-10-31T15:57:12;14.80;;;4.30;;
24086;SDS011;22893;50.572;7.234;2022-10-31T15:59:41;14.00;;;3.35;;
24086;SDS011;22893;50.572;7.234;2022-10-31T16:02:11;12.50;;;4.03;;
24086;SDS011;22893;50.572;7.234;2022-10-31T16:04:53;10.85;;;4.55;;
24086;SDS011;22893;50.572;7.234;2022-10-31T16:07:26;16.97;;;3.95;;
24086;SDS011;22893;50.572;7.234;2022-10-31T16:09:59;13.40;;;4.25;;
24086;SDS011;22893;50.572;7.234;2022-10-31T16:12:35;12.25;;;4.80;;
24086;SDS011;22893;50.572;7.234;2022-10-31T16:15:04;7.62;;;3.25;;
24086;SDS011;22893;50.572;7.234;2022-10-31T16:17:33;12.37;;;4.47;;
24086;SDS011;22893;50.572;7.234;2022-10-31T16:20:02;7.60;;;3.45;;
24086;SDS011;22893;50.572;7.234;2022-10-31T16:22:35;7.35;;;3.40;;
24086;SDS011;22893;50.572;7.234;2022-10-31T16:25:09;11.22;;;4.10;;
24086;SDS011;22893;50.572;7.234;2022-10-31T16:27:51;9.38;;;3.60;;
24086;SDS011;22893;50.572;7.234;2022-10-31T16:38:57;9.10;;;3.92;;
24086;SDS011;22893;50.572;7.234;2022-10-31T16:41:21;12.05;;;5.10;;
24086;SDS011;22893;50.572;7.234;2022-10-31T16:43:50;13.45;;;4.87;;
24086;SDS011;22893;50.572;7.234;2022-10-31T16:46:21;13.83;;;5.33;;
24086;SDS011;22893;50.572;7.234;2022-10-31T16:48:51;19.52;;;6.25;;
24086;SDS011;22893;50.572;7.234;2022-10-31T16:51:19;11.43;;;5.40;;
24086;SDS011;22893;50.572;7.234;2022-10-31T16:53:47;11.35;;;4.70;;
24086;SDS011;22893;50.572;7.234;2022-10-31T16:56:23;12.25;;;5.47;;
24086;SDS011;22893;50.572;7.234;2022-10-31T16:58:54;11.35;;;5.20;;
24086;SDS011;22893;50.572;7.234;2022-10-31T17:01:21;13.32;;;5.67;;
24086;SDS011;22893;50.572;7.234;2022-10-31T17:03:49;12.88;;;5.17;;
24086;SDS011;22893;50.572;7.234;2022-10-31T17:06:16;9.80;;;4.17;;
24086;SDS011;22893;50.572;7.234;2022-10-31T17:08:44;10.82;;;5.70;;
24086;SDS011;22893;50.572;7.234;2022-10-31T17:11:13;13.35;;;5.10;;
24086;SDS011;22893;50.572;7.234;2022-10-31T17:13:42;10.80;;;4.87;;
24086;SDS011;22893;50.572;7.234;2022-10-31T17:16:09;10.18;;;4.75;;
24086;SDS011;22893;50.572;7.234;2022-10-31T17:18:42;10.18;;;4.97;;
24086;SDS011;22893;50.572;7.234;2022-10-31T17:21:15;15.05;;;5.33;;
24086;SDS011;22893;50.572;7.234;2022-10-31T17:23:42;9.65;;;5.22;;
24086;SDS011;22893;50.572;7.234;2022-10-31T17:26:09;12.55;;;5.58;;
24086;SDS011;22893;50.572;7.234;2022-10-31T17:28:37;11.10;;;4.35;;
24086;SDS011;22893;50.572;7.234;2022-10-31T17:31:05;10.23;;;4.87;;
24086;SDS011;22893;50.572;7.234;2022-10-31T17:33:34;11.63;;;5.42;;
24086;SDS011;22893;50.572;7.234;2022-10-31T17:36:02;14.93;;;4.55;;
24086;SDS011;22893;50.572;7.234;2022-10-31T17:38:30;14.20;;;5.60;;
24086;SDS011;22893;50.572;7.234;2022-10-31T23:59:30;12.95;;;4.15;;
